Time;durP1;ratioP1;P1;durP2;ratioP2;P2;SDS_P1;SDS_P2;PMS_P1;PMS_P2;Temp;Humidity;BMP_temperature;BMP_pressure;BME280_temperature;BME280_humidity;BME280_pressure;Samples;Min_cycle;Max_cycle;Signal;HPM_P1;HPM_P2
2023/01/21 00:01:43;;;;;;;7.90;3.95;;;;;;;;;;5023583;28;20389;-73
2023/01/21 00:04:08;;;;;;;7.45;3.55;;;;;;;;;;5022823;28;20037;-71
2023/01/21 00:06:35;;;;;;;8.45;4.68;;;;;;;;;;5013894;28;20091;-72
2023/01/21 00:09:00;;;;;;;6.22;3.55;;;;;;;;;;5015980;28;20042;-71
2023/01/21 00:11:26;;;;;;;11.23;4.72;;;;;;;;;;5027431;28;20382;-72
2023/01/21 00:13:51;;;;;;;7.85;3.28;;;;;;;;;;5019921;28;20053;-71
2023/01/21 00:16:16;;;;;;;6.65;3.58;;;;;;;;;;5026135;28;20037;-71
2023/01/21 00:18:42;;;;;;;10.45;3.72;;;;;;;;;;5021714;28;20029;-71
2023/01/21 00:21:07;;;;;;;15.45;4.70;;;;;;;;;;5027152;28;20041;-72
2023/01/21 00:23:33;;;;;;;6.18;4.43;;;;;;;;;;5017127;28;20120;-71
2023/01/21 00:25:59;;;;;;;10.00;4.32;;;;;;;;;;5017853;28;20105;-71
2023/01/21 00:28:27;;;;;;;6.93;3.72;;;;;;;;;;5013975;28;20486;-70
2023/01/21 00:30:59;;;;;;;8.20;4.20;;;;;;;;;;5017177;28;20038;-71
2023/01/21 00:33:25;;;;;;;12.35;4.47;;;;;;;;;;5027478;28;20485;-71
2023/01/21 00:36:02;;;;;;;9.65;4.43;;;;;;;;;;5031822;28;20040;-71
2023/01/21 00:38:28;;;;;;;12.07;3.28;;;;;;;;;;5020591;28;20037;-71
2023/01/21 00:40:58;;;;;;;16.95;5.75;;;;;;;;;;5017507;28;20046;-71
2023/01/21 00:43:24;;;;;;;13.25;4.28;;;;;;;;;;5028707;28;20033;-71
2023/01/21 00:45:49;;;;;;;10.52;4.55;;;;;;;;;;5017137;28;20060;-71
2023/01/21 00:48:15;;;;;;;8.10;3.83;;;;;;;;;;5022977;28;20393;-70
2023/01/21 00:50:40;;;;;;;10.15;4.15;;;;;;;;;;5025935;28;20054;-71
2023/01/21 00:53:05;;;;;;;11.93;4.85;;;;;;;;;;5030857;28;20045;-70
2023/01/21 00:55:31;;;;;;;8.02;3.55;;;;;;;;;;5023381;28;20070;-71
2023/01/21 00:57:56;;;;;;;11.15;4.22;;;;;;;;;;5023245;28;20025;-71
2023/01/21 01:00:21;;;;;;;10.05;3.50;;;;;;;;;;5023587;28;20029;-73
2023/01/21 01:02:47;;;;;;;8.55;3.55;;;;;;;;;;5022196;28;20125;-70
2023/01/21 01:05:13;;;;;;;8.07;3.85;;;;;;;;;;5026630;28;20473;-71
2023/01/21 01:07:40;;;;;;;7.60;3.17;;;;;;;;;;5014306;28;20099;-71
2023/01/21 01:10:06;;;;;;;6.43;3.72;;;;;;;;;;5017483;28;20045;-71
2023/01/21 01:12:31;;;;;;;6.60;3.30;;;;;;;;;;5021993;28;20037;-71
2023/01/21 01:14:57;;;;;;;7.07;3.85;;;;;;;;;;5028891;28;20045;-70
2023/01/21 01:17:22;;;;;;;6.57;3.30;;;;;;;;;;5022690;28;20045;-72
2023/01/21 01:19:48;;;;;;;9.70;3.75;;;;;;;;;;5027525;28;20045;-71
2023/01/21 01:22:13;;;;;;;9.55;4.05;;;;;;;;;;5014358;28;20125;-71
2023/01/21 01:24:38;;;;;;;8.60;4.45;;;;;;;;;;5018812;28;20047;-70
2023/01/21 01:27:04;;;;;;;10.18;4.63;;;;;;;;;;5013474;28;20033;-71
2023/01/21 01:29:29;;;;;;;7.05;4.03;;;;;;;;;;5021414;28;20065;-70
2023/01/21 01:31:54;;;;;;;8.15;4.53;;;;;;;;;;5019343;28;20493;-71
2023/01/21 01:34:20;;;;;;;11.10;4.70;;;;;;;;;;5020544;28;20080;-72
2023/01/21 01:36:46;;;;;;;7.03;4.32;;;;;;;;;;5019844;28;20532;-70
2023/01/21 01:39:12;;;;;;;6.63;4.40;;;;;;;;;;5022863;28;20066;-71
2023/01/21 01:41:37;;;;;;;10.38;3.95;;;;;;;;;;5022299;28;20061;-71
2023/01/21 01:44:04;;;;;;;7.72;4.45;;;;;;;;;;5014499;28;20379;-71
2023/01/21 01:46:33;;;;;;;7.07;3.50;;;;;;;;;;5018038;28;20145;-71
2023/01/21 01:48:58;;;;;;;9.20;4.70;;;;;;;;;;5039716;28;20037;-70
2023/01/21 01:51:41;;;;;;;8.48;3.85;;;;;;;;;;5022320;28;20137;-71
2023/01/21 01:54:08;;;;;;;6.63;3.67;;;;;;;;;;5031045;28;20037;-71
2023/01/21 01:56:34;;;;;;;10.48;4.30;;;;;;;;;;5021344;28;20065;-70
2023/01/21 01:58:59;;;;;;;10.65;3.92;;;;;;;;;;5018644;28;20045;-70
2023/01/21 02:01:25;;;;;;;6.13;3.67;;;;;;;;;;5022253;28;20405;-71
2023/01/21 02:03:58;;;;;;;21.60;4.68;;;;;;;;;;5022244;28;20046;-71
2023/01/21 02:06:23;;;;;;;14.45;5.30;;;;;;;;;;5017519;28;20061;-71
2023/01/21 02:08:51;;;;;;;10.23;4.60;;;;;;;;;;5024204;28;20398;-70
2023/01/21 02:11:19;;;;;;;11.65;4.68;;;;;;;;;;5014999;28;20045;-70
2023/01/21 02:13:56;;;;;;;7.45;4.50;;;;;;;;;;5016768;28;20052;-70
2023/01/21 02:16:31;;;;;;;6.60;3.10;;;;;;;;;;5013324;28;20041;-71
2023/01/21 02:19:04;;;;;;;9.35;4.32;;;;;;;;;;5022893;28;20072;-70
2023/01/21 02:22:18;;;;;;;10.30;4.05;;;;;;;;;;5032626;28;20041;-71
2023/01/21 02:25:14;;;;;;;8.95;3.75;;;;;;;;;;5015057;28;20052;-70
2023/01/21 02:27:57;;;;;;;9.30;3.67;;;;;;;;;;5024600;28;20076;-71
2023/01/21 02:30:28;;;;;;;10.48;4.20;;;;;;;;;;5031212;28;20401;-71
2023/01/21 02:32:57;;;;;;;8.05;3.40;;;;;;;;;;5022158;28;20529;-72
2023/01/21 02:35:30;;;;;;;4.35;2.83;;;;;;;;;;5026070;28;20036;-71
2023/01/21 02:38:11;;;;;;;7.25;3.90;;;;;;;;;;5027688;28;20033;-70
2023/01/21 02:40:46;;;;;;;6.47;3.13;;;;;;;;;;5024418;28;20044;-72
2023/01/21 02:43:17;;;;;;;8.50;4.00;;;;;;;;;;5028184;28;20041;-70
2023/01/21 02:45:50;;;;;;;5.50;3.45;;;;;;;;;;5014044;28;20129;-71
2023/01/21 02:48:19;;;;;;;6.38;3.88;;;;;;;;;;5056117;28;20046;-70
2023/01/21 02:50:48;;;;;;;6.38;3.83;;;;;;;;;;5027348;28;20050;-70
2023/01/21 02:53:31;;;;;;;6.93;3.58;;;;;;;;;;5018707;28;20441;-70
2023/01/21 02:56:13;;;;;;;5.22;3.22;;;;;;;;;;5026276;28;20049;-71
2023/01/21 02:58:46;;;;;;;7.32;2.72;;;;;;;;;;5032768;28;20037;-71
2023/01/21 03:01:39;;;;;;;10.27;3.47;;;;;;;;;;5024912;28;20039;-71
2023/01/21 03:04:14;;;;;;;4.88;2.75;;;;;;;;;;5024423;28;20091;-70
2023/01/21 03:06:47;;;;;;;7.15;3.38;;;;;;;;;;5027583;28;20073;-71
2023/01/21 03:09:27;;;;;;;8.27;3.88;;;;;;;;;;5027345;28;20025;-70
2023/01/21 03:12:02;;;;;;;8.35;3.13;;;;;;;;;;5025206;28;20081;-70
2023/01/21 03:17:32;;;;;;;10.55;3.08;;;;;;;;;;5018713;28;20453;-70
2023/01/21 03:20:03;;;;;;;7.13;3.08;;;;;;;;;;5021503;28;20431;-71
2023/01/21 03:22:30;;;;;;;10.27;3.65;;;;;;;;;;5020679;28;20042;-71
2023/01/21 03:24:56;;;;;;;15.43;3.30;;;;;;;;;;5028709;28;20499;-70
2023/01/21 03:27:25;;;;;;;8.88;3.70;;;;;;;;;;5021369;28;20117;-72
2023/01/21 03:29:58;;;;;;;5.20;2.75;;;;;;;;;;5011043;28;20113;-70
2023/01/21 03:32:25;;;;;;;6.50;3.15;;;;;;;;;;5014350;28;20493;-71
2023/01/21 03:34:53;;;;;;;7.00;3.17;;;;;;;;;;5017932;28;20037;-71
2023/01/21 03:37:24;;;;;;;6.35;3.38;;;;;;;;;;5019737;28;20079;-70
2023/01/21 03:40:13;;;;;;;4.95;3.10;;;;;;;;;;5016679;28;20042;-70
2023/01/21 03:42:40;;;;;;;10.30;3.63;;;;;;;;;;5012996;28;20478;-73
2023/01/21 03:45:06;;;;;;;7.20;3.55;;;;;;;;;;5023273;28;20103;-70
2023/01/21 03:47:34;;;;;;;6.38;3.55;;;;;;;;;;5016136;28;20077;-70
2023/01/21 03:50:15;;;;;;;6.80;2.95;;;;;;;;;;5014152;28;20042;-70
2023/01/21 03:52:41;;;;;;;5.88;3.10;;;;;;;;;;5020268;28;20037;-71
2023/01/21 03:55:09;;;;;;;13.13;3.30;;;;;;;;;;5026396;28;20096;-70
2023/01/21 03:57:34;;;;;;;6.60;3.35;;;;;;;;;;5019724;28;20025;-72
2023/01/21 03:59:59;;;;;;;10.70;3.00;;;;;;;;;;5020346;28;20048;-72
2023/01/21 04:02:25;;;;;;;8.80;3.38;;;;;;;;;;5026839;28;20048;-70
2023/01/21 04:04:51;;;;;;;10.10;3.30;;;;;;;;;;5019251;28;20033;-70
2023/01/21 04:07:17;;;;;;;8.23;3.83;;;;;;;;;;5020354;28;20056;-70
2023/01/21 04:09:43;;;;;;;16.83;3.90;;;;;;;;;;5019059;28;20046;-70
2023/01/21 04:12:08;;;;;;;4.60;2.70;;;;;;;;;;5025019;28;20183;-70
2023/01/21 04:14:34;;;;;;;8.70;4.47;;;;;;;;;;5023509;28;20115;-70
2023/01/21 04:16:59;;;;;;;6.97;3.15;;;;;;;;;;5017490;28;20073;-70
2023/01/21 04:19:24;;;;;;;9.05;3.35;;;;;;;;;;5021374;28;20033;-70
2023/01/21 04:21:50;;;;;;;6.10;2.50;;;;;;;;;;5028070;28;20034;-71
2023/01/21 04:24:15;;;;;;;11.80;2.90;;;;;;;;;;5017380;28;20037;-70
2023/01/21 04:26:40;;;;;;;9.65;3.20;;;;;;;;;;5025838;28;20033;-70
2023/01/21 04:29:06;;;;;;;4.47;3.03;;;;;;;;;;5022656;28;20385;-70
2023/01/21 04:31:31;;;;;;;9.05;3.75;;;;;;;;;;5025382;28;20034;-70
2023/01/21 04:33:57;;;;;;;9.68;2.85;;;;;;;;;;5021490;28;20037;-70
2023/01/21 04:36:22;;;;;;;8.25;3.30;;;;;;;;;;5018853;28;20104;-72
2023/01/21 04:38:47;;;;;;;9.57;2.58;;;;;;;;;;5014445;28;20421;-70
2023/01/21 04:41:13;;;;;;;5.00;1.88;;;;;;;;;;5023041;28;20060;-70
2023/01/21 04:43:38;;;;;;;5.68;3.03;;;;;;;;;;5028755;28;20492;-70
2023/01/21 04:46:04;;;;;;;7.43;3.03;;;;;;;;;;5018821;28;20116;-70
2023/01/21 04:48:30;;;;;;;3.80;2.33;;;;;;;;;;5019471;28;20034;-71
2023/01/21 04:50:55;;;;;;;7.60;3.17;;;;;;;;;;5022849;28;20045;-72
2023/01/21 04:53:20;;;;;;;7.53;4.28;;;;;;;;;;5023839;28;20044;-70
2023/01/21 04:55:46;;;;;;;7.45;3.88;;;;;;;;;;5021058;28;20060;-70
2023/01/21 04:58:11;;;;;;;8.57;3.13;;;;;;;;;;5019948;28;20034;-70
2023/01/21 05:00:36;;;;;;;7.97;2.95;;;;;;;;;;5020398;28;20093;-70
2023/01/21 05:03:03;;;;;;;3.60;2.08;;;;;;;;;;5017706;28;20104;-70
2023/01/21 05:05:28;;;;;;;3.85;2.10;;;;;;;;;;5024613;28;20029;-71
2023/01/21 05:07:54;;;;;;;9.40;3.10;;;;;;;;;;5024529;28;20041;-70
2023/01/21 05:10:19;;;;;;;8.30;3.05;;;;;;;;;;5023013;28;20551;-70
2023/01/21 05:12:45;;;;;;;4.28;2.08;;;;;;;;;;5022951;28;20030;-70
2023/01/21 05:15:10;;;;;;;12.18;3.35;;;;;;;;;;5017763;28;20492;-70
2023/01/21 05:17:36;;;;;;;5.05;2.17;;;;;;;;;;5017729;28;20473;-70
2023/01/21 05:20:02;;;;;;;6.78;3.08;;;;;;;;;;5017523;28;20037;-71
2023/01/21 05:22:27;;;;;;;5.35;2.47;;;;;;;;;;5021536;28;20029;-70
2023/01/21 05:24:53;;;;;;;5.68;2.97;;;;;;;;;;5021317;28;20032;-70
2023/01/21 05:27:20;;;;;;;9.30;3.15;;;;;;;;;;5015179;28;20382;-70
2023/01/21 05:29:46;;;;;;;8.85;2.70;;;;;;;;;;5022074;28;20033;-70
2023/01/21 05:32:11;;;;;;;6.65;2.92;;;;;;;;;;5020361;28;20037;-70
2023/01/21 05:34:36;;;;;;;6.57;2.45;;;;;;;;;;5025786;28;20381;-70
2023/01/21 05:37:02;;;;;;;6.78;2.55;;;;;;;;;;5018770;28;20084;-70
2023/01/21 05:39:27;;;;;;;4.38;2.90;;;;;;;;;;5024791;28;20056;-70
2023/01/21 05:41:53;;;;;;;5.07;2.90;;;;;;;;;;5024044;28;20381;-70
2023/01/21 05:44:18;;;;;;;6.70;3.22;;;;;;;;;;5027011;28;20041;-70
2023/01/21 05:46:43;;;;;;;6.10;2.60;;;;;;;;;;5022414;28;20034;-70
2023/01/21 05:49:09;;;;;;;6.78;3.70;;;;;;;;;;5028108;28;20045;-70
2023/01/21 05:51:34;;;;;;;4.50;1.67;;;;;;;;;;5033521;28;20478;-70
2023/01/21 05:53:59;;;;;;;8.38;3.13;;;;;;;;;;5021482;28;20480;-71
2023/01/21 05:56:25;;;;;;;8.88;3.75;;;;;;;;;;5025244;28;20444;-70
2023/01/21 05:58:50;;;;;;;3.15;2.13;;;;;;;;;;5020755;28;20034;-70
2023/01/21 06:01:15;;;;;;;4.57;3.00;;;;;;;;;;5025535;28;20034;-70
2023/01/21 06:03:41;;;;;;;4.95;2.55;;;;;;;;;;5032596;28;20047;-70
2023/01/21 06:06:06;;;;;;;4.47;2.47;;;;;;;;;;5034125;28;20067;-70
2023/01/21 06:08:32;;;;;;;5.72;2.67;;;;;;;;;;5034313;28;20160;-70
2023/01/21 06:10:57;;;;;;;8.90;2.42;;;;;;;;;;5023948;28;20034;-70
2023/01/21 06:13:23;;;;;;;4.43;2.08;;;;;;;;;;5029759;28;20034;-71
2023/01/21 06:15:49;;;;;;;6.90;3.85;;;;;;;;;;5023177;28;20041;-70
2023/01/21 06:18:14;;;;;;;12.45;3.58;;;;;;;;;;5017072;28;20038;-70
2023/01/21 06:20:39;;;;;;;3.15;2.53;;;;;;;;;;5028998;28;20084;-70
2023/01/21 06:23:05;;;;;;;4.53;2.33;;;;;;;;;;5026617;28;20091;-70
2023/01/21 06:25:31;;;;;;;5.32;2.42;;;;;;;;;;5019337;28;20121;-70
2023/01/21 06:27:57;;;;;;;6.43;3.03;;;;;;;;;;5025619;28;20868;-70
2023/01/21 06:30:23;;;;;;;3.13;1.92;;;;;;;;;;5026228;28;20072;-72
2023/01/21 06:32:49;;;;;;;4.32;2.95;;;;;;;;;;5053388;28;20441;-70
2023/01/21 06:35:15;;;;;;;6.40;2.72;;;;;;;;;;5029513;28;20053;-70
2023/01/21 06:37:40;;;;;;;8.15;2.75;;;;;;;;;;5031408;28;20030;-70
2023/01/21 06:40:07;;;;;;;6.25;2.78;;;;;;;;;;5024969;28;20409;-70
2023/01/21 06:42:33;;;;;;;7.13;2.78;;;;;;;;;;5023453;28;20026;-70
2023/01/21 06:44:58;;;;;;;14.38;3.03;;;;;;;;;;5017544;28;20036;-70
2023/01/21 06:47:24;;;;;;;5.50;2.22;;;;;;;;;;5016994;28;20363;-71
2023/01/21 06:49:49;;;;;;;5.63;2.72;;;;;;;;;;5018976;28;20046;-70
2023/01/21 06:52:15;;;;;;;2.78;1.88;;;;;;;;;;5023939;28;20049;-71
2023/01/21 06:54:42;;;;;;;4.90;3.00;;;;;;;;;;5020429;28;20120;-70
2023/01/21 06:57:07;;;;;;;7.68;2.47;;;;;;;;;;5053570;28;20038;-72
2023/01/21 06:59:33;;;;;;;5.72;2.90;;;;;;;;;;5020069;28;20471;-70
2023/01/21 07:01:58;;;;;;;7.80;2.30;;;;;;;;;;5021153;28;20064;-70
2023/01/21 07:04:25;;;;;;;3.42;2.33;;;;;;;;;;5017314;28;20042;-71
2023/01/21 07:06:50;;;;;;;7.57;2.90;;;;;;;;;;5024139;28;20033;-70
2023/01/21 07:09:16;;;;;;;7.53;2.58;;;;;;;;;;5023837;28;20037;-70
2023/01/21 07:11:41;;;;;;;11.80;3.13;;;;;;;;;;5031805;28;20060;-70
2023/01/21 07:14:07;;;;;;;4.55;2.88;;;;;;;;;;5021429;28;20022;-69
2023/01/21 07:16:32;;;;;;;6.38;2.70;;;;;;;;;;5021089;28;20033;-70
2023/01/21 07:18:57;;;;;;;7.63;2.15;;;;;;;;;;5026869;28;20116;-70
2023/01/21 07:21:24;;;;;;;3.97;2.63;;;;;;;;;;5021089;28;20030;-71
2023/01/21 07:23:51;;;;;;;11.77;3.03;;;;;;;;;;5014566;28;20030;-70
2023/01/21 07:26:17;;;;;;;16.33;2.70;;;;;;;;;;5019278;28;20041;-70
2023/01/21 07:28:42;;;;;;;4.32;2.17;;;;;;;;;;5015651;28;20041;-70
2023/01/21 07:31:08;;;;;;;3.67;2.67;;;;;;;;;;5023288;28;20120;-70
2023/01/21 07:33:33;;;;;;;4.60;2.65;;;;;;;;;;5016536;28;20045;-70
2023/01/21 07:35:59;;;;;;;5.88;2.78;;;;;;;;;;5025537;28;20033;-70
2023/01/21 07:38:24;;;;;;;6.70;2.88;;;;;;;;;;5024171;28;20406;-71
2023/01/21 07:40:50;;;;;;;8.32;3.20;;;;;;;;;;5015141;28;20068;-70
2023/01/21 07:43:16;;;;;;;4.22;2.10;;;;;;;;;;5023813;28;20033;-69
2023/01/21 07:45:41;;;;;;;3.38;2.33;;;;;;;;;;5025980;28;20037;-70
2023/01/21 07:48:06;;;;;;;5.82;3.15;;;;;;;;;;5024137;28;20040;-70
2023/01/21 07:50:35;;;;;;;4.60;2.50;;;;;;;;;;5017544;28;20053;-70
2023/01/21 07:53:00;;;;;;;10.70;3.85;;;;;;;;;;5024183;28;20030;-72
2023/01/21 07:55:26;;;;;;;4.50;2.53;;;;;;;;;;5016884;28;20473;-70
2023/01/21 07:57:54;;;;;;;5.38;2.20;;;;;;;;;;5018183;28;20424;-71
2023/01/21 08:00:20;;;;;;;5.05;2.35;;;;;;;;;;5018916;28;20033;-71
2023/01/21 08:02:49;;;;;;;4.68;2.17;;;;;;;;;;5024694;28;20103;-70
2023/01/21 08:05:14;;;;;;;10.38;2.78;;;;;;;;;;5017383;28;20112;-70
2023/01/21 08:07:40;;;;;;;7.32;2.78;;;;;;;;;;5021770;28;20065;-71
2023/01/21 08:10:05;;;;;;;10.80;3.30;;;;;;;;;;5020185;28;20459;-71
2023/01/21 08:12:31;;;;;;;6.05;1.88;;;;;;;;;;5022256;28;20041;-70
2023/01/21 08:14:56;;;;;;;10.90;3.65;;;;;;;;;;5020831;28;20021;-71
2023/01/21 08:17:21;;;;;;;10.18;3.50;;;;;;;;;;5021843;28;20038;-71
2023/01/21 08:19:47;;;;;;;6.38;4.00;;;;;;;;;;5017665;28;20033;-71
2023/01/21 08:22:12;;;;;;;10.63;3.53;;;;;;;;;;5020941;28;20026;-70
2023/01/21 08:24:37;;;;;;;5.45;3.20;;;;;;;;;;5020068;28;20037;-71
2023/01/21 08:27:03;;;;;;;9.32;3.63;;;;;;;;;;5022286;28;20033;-70
2023/01/21 08:29:29;;;;;;;6.43;3.72;;;;;;;;;;5017091;28;20167;-70
2023/01/21 08:31:54;;;;;;;15.00;5.18;;;;;;;;;;5022908;28;20041;-70
2023/01/21 08:34:20;;;;;;;4.35;2.95;;;;;;;;;;5016055;28;20125;-70
2023/01/21 08:36:45;;;;;;;12.50;4.20;;;;;;;;;;5026512;28;20037;-70
2023/01/21 08:39:15;;;;;;;18.98;4.10;;;;;;;;;;5014216;28;20383;-70
2023/01/21 08:41:41;;;;;;;13.27;4.22;;;;;;;;;;5026032;28;20033;-70
2023/01/21 08:44:06;;;;;;;6.70;3.50;;;;;;;;;;5014512;28;20069;-72
2023/01/21 08:46:32;;;;;;;11.55;4.53;;;;;;;;;;5022231;28;20076;-70
2023/01/21 08:48:58;;;;;;;9.02;4.50;;;;;;;;;;5027343;28;20029;-70
2023/01/21 08:51:24;;;;;;;11.05;4.90;;;;;;;;;;5017101;28;20048;-71
2023/01/21 08:53:50;;;;;;;15.85;4.90;;;;;;;;;;5025211;28;20071;-70
2023/01/21 08:56:16;;;;;;;8.82;3.80;;;;;;;;;;5023684;28;20432;-70
2023/01/21 08:58:41;;;;;;;10.25;4.93;;;;;;;;;;5017199;28;20034;-71
2023/01/21 09:01:09;;;;;;;14.40;6.05;;;;;;;;;;5019725;28;20389;-71
2023/01/21 09:03:34;;;;;;;6.70;4.20;;;;;;;;;;5018342;28;20037;-70
2023/01/21 09:06:01;;;;;;;16.67;4.75;;;;;;;;;;5026178;28;20037;-71
2023/01/21 09:08:26;;;;;;;12.13;5.57;;;;;;;;;;5021584;28;20037;-71
2023/01/21 09:11:02;;;;;;;9.48;4.60;;;;;;;;;;5020921;28;20037;-71
2023/01/21 09:13:36;;;;;;;15.55;5.30;;;;;;;;;;5023613;28;20040;-71
2023/01/21 09:16:01;;;;;;;;;;;;;;;;;;5021297;28;20037;-71
2023/01/21 09:18:27;;;;;;;8.73;4.88;;;;;;;;;;5020449;28;19913;-70
2023/01/21 09:20:52;;;;;;;13.20;5.40;;;;;;;;;;5033712;28;20037;-71
2023/01/21 09:23:24;;;;;;;13.40;5.45;;;;;;;;;;5027604;28;20115;-71
2023/01/21 09:26:04;;;;;;;21.25;5.93;;;;;;;;;;5026547;28;20040;-71
2023/01/21 09:28:31;;;;;;;14.52;5.47;;;;;;;;;;5031605;28;20040;-70
2023/01/21 09:30:58;;;;;;;13.27;5.75;;;;;;;;;;5035817;28;20033;-71
2023/01/21 09:33:23;;;;;;;19.85;8.70;;;;;;;;;;5023254;28;20034;-72
2023/01/21 09:35:56;;;;;;;15.73;8.38;;;;;;;;;;5032770;28;20397;-70
2023/01/21 09:38:23;;;;;;;11.90;6.07;;;;;;;;;;5025704;28;20366;-71
2023/01/21 09:40:48;;;;;;;22.80;6.88;;;;;;;;;;5019016;28;20049;-71
2023/01/21 09:43:22;;;;;;;19.50;6.68;;;;;;;;;;5036441;28;20085;-71
2023/01/21 09:45:48;;;;;;;11.60;5.15;;;;;;;;;;5021625;28;20026;-72
2023/01/21 09:48:23;;;;;;;18.45;6.18;;;;;;;;;;5017730;28;20044;-72
2023/01/21 09:50:49;;;;;;;18.85;5.93;;;;;;;;;;5008720;28;20446;-71
2023/01/21 09:53:37;;;;;;;11.05;5.22;;;;;;;;;;5008499;28;20129;-71
2023/01/21 09:56:06;;;;;;;17.08;6.38;;;;;;;;;;5021478;28;20137;-71
2023/01/21 09:58:42;;;;;;;12.25;5.53;;;;;;;;;;5028405;28;20091;-71
2023/01/21 10:01:14;;;;;;;9.43;5.32;;;;;;;;;;5041515;28;20064;-71
2023/01/21 10:03:49;;;;;;;15.40;6.63;;;;;;;;;;5019346;28;20120;-71
2023/01/21 10:06:39;;;;;;;13.73;6.20;;;;;;;;;;5023496;28;20373;-72
2023/01/21 10:09:14;;;;;;;18.67;6.97;;;;;;;;;;5019221;28;20068;-72
2023/01/21 10:11:53;;;;;;;16.52;5.95;;;;;;;;;;5017666;28;20109;-71
2023/01/21 10:14:39;;;;;;;14.13;6.35;;;;;;;;;;5015266;28;20092;-72
2023/01/21 10:17:13;;;;;;;12.90;6.22;;;;;;;;;;5017270;28;20088;-72
2023/01/21 10:19:51;;;;;;;24.20;7.47;;;;;;;;;;5022381;28;20131;-71
2023/01/21 10:22:20;;;;;;;29.85;7.80;;;;;;;;;;5029821;28;20076;-73
2023/01/21 10:24:54;;;;;;;39.28;7.15;;;;;;;;;;5045124;28;20037;-72
2023/01/21 10:27:21;;;;;;;28.98;7.07;;;;;;;;;;5021248;28;20022;-71
2023/01/21 10:29:58;;;;;;;37.10;7.75;;;;;;;;;;5045227;28;20052;-71
2023/01/21 10:32:24;;;;;;;25.27;7.70;;;;;;;;;;5024044;28;20029;-73
2023/01/21 10:34:55;;;;;;;38.03;7.65;;;;;;;;;;5023150;28;20042;-72
2023/01/21 10:37:36;;;;;;;36.45;9.07;;;;;;;;;;5019501;28;20080;-72
2023/01/21 10:40:10;;;;;;;23.70;7.35;;;;;;;;;;5016221;28;20115;-72
2023/01/21 10:43:14;;;;;;;;;;;;;;;;;;5013866;28;20038;-72
2023/01/21 10:45:47;;;;;;;34.63;7.28;;;;;;;;;;5007178;28;19966;-72
2023/01/21 10:48:12;;;;;;;30.30;8.38;;;;;;;;;;5007979;28;20426;-73
2023/01/21 10:51:20;;;;;;;37.42;8.02;;;;;;;;;;5019241;28;20060;-72
2023/01/21 10:53:56;;;;;;;17.65;6.97;;;;;;;;;;4999350;28;21008;-72
2023/01/21 10:56:33;;;;;;;21.92;7.95;;;;;;;;;;4996654;28;20042;-76
2023/01/21 10:59:05;;;;;;;39.50;7.15;;;;;;;;;;5010521;28;20160;-73
2023/01/21 11:01:41;;;;;;;17.58;6.78;;;;;;;;;;5011839;28;20050;-73
2023/01/21 11:04:18;;;;;;;30.58;7.35;;;;;;;;;;5019203;28;20033;-73
2023/01/21 11:06:45;;;;;;;22.17;6.22;;;;;;;;;;5014545;28;20037;-72
2023/01/21 11:09:12;;;;;;;29.75;7.82;;;;;;;;;;5014659;28;20045;-72
2023/01/21 11:11:40;;;;;;;29.20;6.93;;;;;;;;;;5010855;28;20096;-73
2023/01/21 11:14:06;;;;;;;33.28;10.77;;;;;;;;;;5011914;28;20148;-75
2023/01/21 11:16:42;;;;;;;28.23;7.10;;;;;;;;;;5014493;28;20168;-76
2023/01/21 11:19:12;;;;;;;29.35;6.57;;;;;;;;;;5021212;28;20021;-73
2023/01/21 11:21:38;;;;;;;31.38;7.63;;;;;;;;;;5029749;28;20037;-73
2023/01/21 11:24:20;;;;;;;38.10;12.85;;;;;;;;;;5014101;28;20025;-73
2023/01/21 11:26:54;;;;;;;44.47;13.00;;;;;;;;;;5018608;28;20121;-73
2023/01/21 11:29:20;;;;;;;;;;;;;;;;;;5014153;28;20038;-72
2023/01/21 11:32:16;;;;;;;34.47;15.38;;;;;;;;;;5029968;28;20280;-73
2023/01/21 11:34:47;;;;;;;39.22;15.32;;;;;;;;;;5036508;28;20037;-73
2023/01/21 11:37:23;;;;;;;45.05;16.55;;;;;;;;;;5032641;28;20390;-73
2023/01/21 11:39:58;;;;;;;49.53;17.40;;;;;;;;;;5019718;28;20481;-73
2023/01/21 11:42:24;;;;;;;42.67;16.67;;;;;;;;;;5027242;28;20493;-73
2023/01/21 11:44:56;;;;;;;50.05;17.25;;;;;;;;;;5020978;28;20056;-73
2023/01/21 11:47:51;;;;;;;50.35;18.23;;;;;;;;;;5027283;28;20045;-73
2023/01/21 11:50:21;;;;;;;46.75;15.90;;;;;;;;;;5012241;28;20486;-73
2023/01/21 11:52:46;;;;;;;51.72;18.20;;;;;;;;;;5020181;28;20072;-73
2023/01/21 11:55:22;;;;;;;45.10;16.05;;;;;;;;;;5031263;28;20478;-73
2023/01/21 11:57:52;;;;;;;39.85;17.48;;;;;;;;;;5014146;28;20113;-73
2023/01/21 12:00:20;;;;;;;50.30;17.73;;;;;;;;;;5016294;28;20037;-73
2023/01/21 12:02:51;;;;;;;46.47;18.60;;;;;;;;;;5018954;28;20022;-73
2023/01/21 12:05:33;;;;;;;49.90;18.05;;;;;;;;;;5020614;28;20491;-73
2023/01/21 12:07:59;;;;;;;43.47;17.05;;;;;;;;;;5020651;28;20481;-74
2023/01/21 12:10:45;;;;;;;40.10;18.73;;;;;;;;;;5025021;28;20083;-74
2023/01/21 12:13:13;;;;;;;44.95;17.75;;;;;;;;;;5023245;28;20024;-73
2023/01/21 12:15:49;;;;;;;56.08;20.70;;;;;;;;;;5024650;28;20038;-73
2023/01/21 12:18:33;;;;;;;45.70;16.38;;;;;;;;;;5021169;28;20021;-73
2023/01/21 12:21:17;;;;;;;42.53;17.52;;;;;;;;;;5027700;28;20083;-73
2023/01/21 12:24:06;;;;;;;39.28;17.15;;;;;;;;;;5016684;28;20092;-73
2023/01/21 12:26:47;;;;;;;38.95;16.35;;;;;;;;;;5024036;28;20033;-74
2023/01/21 12:29:30;;;;;;;36.85;15.52;;;;;;;;;;5015006;28;20029;-73
2023/01/21 12:32:01;;;;;;;43.95;16.73;;;;;;;;;;5014120;28;20038;-73
2023/01/21 12:34:33;;;;;;;36.97;15.70;;;;;;;;;;5004053;28;20110;-73
2023/01/21 12:37:02;;;;;;;39.58;16.73;;;;;;;;;;5028289;28;20041;-73
2023/01/21 12:39:28;;;;;;;39.88;15.88;;;;;;;;;;5031243;28;20489;-73
2023/01/21 12:42:20;;;;;;;41.83;15.52;;;;;;;;;;5027649;28;20055;-73
2023/01/21 12:44:48;;;;;;;38.47;14.82;;;;;;;;;;5018936;28;20038;-73
2023/01/21 12:47:44;;;;;;;40.40;16.42;;;;;;;;;;5016972;28;20441;-73
2023/01/21 12:50:21;;;;;;;40.58;17.90;;;;;;;;;;5023429;28;20035;-73
2023/01/21 12:53:05;;;;;;;38.90;15.40;;;;;;;;;;5015549;28;20116;-73
2023/01/21 12:55:49;;;;;;;38.55;15.80;;;;;;;;;;5005466;28;20037;-74
2023/01/21 12:58:17;;;;;;;38.15;15.70;;;;;;;;;;5016127;28;20042;-73
2023/01/21 13:00:47;;;;;;;36.10;14.45;;;;;;;;;;5014755;28;20180;-73
2023/01/21 13:03:29;;;;;;;29.38;12.60;;;;;;;;;;5021047;28;20041;-74
2023/01/21 13:06:04;;;;;;;34.90;14.60;;;;;;;;;;5040357;28;20048;-74
2023/01/21 13:08:41;;;;;;;36.13;15.73;;;;;;;;;;5018616;28;20369;-73
2023/01/21 13:11:21;;;;;;;32.20;15.48;;;;;;;;;;5020682;28;20068;-73
2023/01/21 13:13:53;;;;;;;42.05;16.48;;;;;;;;;;5034878;28;20567;-73
2023/01/21 13:16:20;;;;;;;39.05;15.30;;;;;;;;;;5017347;28;20040;-73
2023/01/21 13:18:50;;;;;;;28.15;14.40;;;;;;;;;;5019742;28;20444;-73
2023/01/21 13:21:38;;;;;;;40.28;17.15;;;;;;;;;;5031692;28;20026;-73
2023/01/21 13:24:12;;;;;;;34.85;18.70;;;;;;;;;;5013951;28;20100;-73
2023/01/21 13:26:45;;;;;;;36.40;18.10;;;;;;;;;;5024530;28;20041;-73
2023/01/21 13:29:23;;;;;;;43.42;22.08;;;;;;;;;;5030522;28;20121;-73
2023/01/21 13:32:10;;;;;;;36.17;18.10;;;;;;;;;;5026117;28;20044;-73
2023/01/21 13:34:43;;;;;;;39.90;19.73;;;;;;;;;;5024952;28;20073;-73
2023/01/21 13:37:32;;;;;;;48.03;23.50;;;;;;;;;;5028666;28;20107;-73
2023/01/21 13:40:16;;;;;;;50.75;24.85;;;;;;;;;;5029871;28;20065;-73
2023/01/21 13:42:53;;;;;;;46.65;21.55;;;;;;;;;;5017031;28;20053;-73
2023/01/21 13:45:37;;;;;;;29.02;14.48;;;;;;;;;;4998375;28;20045;-73
2023/01/21 13:48:35;;;;;;;33.97;15.20;;;;;;;;;;5012663;28;20079;-75
2023/01/21 13:51:15;;;;;;;35.42;16.23;;;;;;;;;;5021646;28;20128;-73
2023/01/21 13:54:19;;;;;;;38.22;17.27;;;;;;;;;;5014574;28;20056;-74
2023/01/21 13:56:59;;;;;;;42.67;19.27;;;;;;;;;;5023886;28;20088;-74
2023/01/21 13:59:35;;;;;;;44.30;20.60;;;;;;;;;;5024287;28;20516;-73
2023/01/21 14:02:15;;;;;;;46.90;23.75;;;;;;;;;;5025860;28;20043;-73
2023/01/21 14:04:50;;;;;;;48.95;21.90;;;;;;;;;;5024160;28;20045;-74
2023/01/21 14:07:48;;;;;;;47.20;22.77;;;;;;;;;;5021808;28;20037;-73
2023/01/21 14:10:20;;;;;;;47.03;21.55;;;;;;;;;;5017625;28;20050;-73
2023/01/21 14:12:48;;;;;;;52.40;22.30;;;;;;;;;;5018784;28;20041;-74
2023/01/21 14:15:32;;;;;;;44.38;22.73;;;;;;;;;;5019282;28;20103;-74
2023/01/21 14:18:19;;;;;;;42.92;19.25;;;;;;;;;;5019416;28;20077;-74
2023/01/21 14:20:56;;;;;;;55.25;21.67;;;;;;;;;;5023810;28;20037;-74
2023/01/21 14:23:33;;;;;;;44.08;21.30;;;;;;;;;;5028649;28;20037;-73
2023/01/21 14:26:05;;;;;;;48.67;23.00;;;;;;;;;;5019279;28;20088;-74
2023/01/21 14:29:00;;;;;;;46.17;22.23;;;;;;;;;;5029286;28;20052;-73
2023/01/21 14:31:37;;;;;;;50.83;20.75;;;;;;;;;;4993664;28;20065;-74
2023/01/21 14:34:08;;;;;;;52.92;25.15;;;;;;;;;;5016655;28;20516;-73
2023/01/21 14:36:34;;;;;;;45.38;22.33;;;;;;;;;;5023266;28;20077;-73
2023/01/21 14:39:14;;;;;;;55.97;27.30;;;;;;;;;;5007340;28;20045;-73
2023/01/21 14:42:14;;;;;;;50.53;25.10;;;;;;;;;;5025960;28;20049;-73
2023/01/21 14:45:00;;;;;;;51.75;23.05;;;;;;;;;;5013766;28;20052;-73
2023/01/21 14:47:28;;;;;;;55.00;24.52;;;;;;;;;;5017574;28;20041;-74
2023/01/21 14:49:55;;;;;;;47.70;21.15;;;;;;;;;;5024102;28;20120;-73
2023/01/21 14:52:30;;;;;;;51.00;21.13;;;;;;;;;;5041968;28;20041;-73
2023/01/21 14:54:56;;;;;;;51.08;18.90;;;;;;;;;;5027528;28;20049;-73
2023/01/21 14:57:30;;;;;;;57.75;23.88;;;;;;;;;;5023403;28;20033;-74